sensor_id;sensor_type;location;lat;lon;timestamp;P1;durP1;ratioP1;P2;durP2;ratioP2
19004;SDS011;9635;52.078;8.648;2023-03-02T00:03:02;13.43;;;7.13;;
19004;SDS011;9635;52.078;8.648;2023-03-02T00:08:06;11.43;;;6.40;;
19004;SDS011;9635;52.078;8.648;2023-03-02T00:13:11;13.50;;;6.10;;
19004;SDS011;9635;52.078;8.648;2023-03-02T00:18:15;16.52;;;7.32;;
19004;SDS011;9635;52.078;8.648;2023-03-02T00:23:18;14.00;;;7.22;;
19004;SDS011;9635;52.078;8.648;2023-03-02T00:28:22;12.77;;;6.50;;
19004;SDS011;9635;52.078;8.648;2023-03-02T00:33:25;13.43;;;6.43;;
19004;SDS011;9635;52.078;8.648;2023-03-02T00:38:28;13.05;;;6.32;;
19004;SDS011;9635;52.078;8.648;2023-03-02T00:43:32;14.00;;;7.03;;
19004;SDS011;9635;52.078;8.648;2023-03-02T00:48:35;12.55;;;6.72;;
19004;SDS011;9635;52.078;8.648;2023-03-02T00:53:38;11.07;;;6.40;;
19004;SDS011;9635;52.078;8.648;2023-03-02T00:58:43;11.75;;;7.03;;
19004;SDS011;9635;52.078;8.648;2023-03-02T01:03:47;14.73;;;7.53;;
19004;SDS011;9635;52.078;8.648;2023-03-02T01:08:50;17.60;;;7.57;;
19004;SDS011;9635;52.078;8.648;2023-03-02T01:13:55;16.98;;;7.93;;
19004;SDS011;9635;52.078;8.648;2023-03-02T01:18:57;16.20;;;7.93;;
19004;SDS011;9635;52.078;8.648;2023-03-02T01:24:00;13.27;;;7.85;;
19004;SDS011;9635;52.078;8.648;2023-03-02T01:29:04;12.98;;;7.38;;
19004;SDS011;9635;52.078;8.648;2023-03-02T01:34:07;16.73;;;8.20;;
19004;SDS011;9635;52.078;8.648;2023-03-02T01:39:11;16.83;;;8.20;;
19004;SDS011;9635;52.078;8.648;2023-03-02T01:44:37;16.00;;;8.18;;
19004;SDS011;9635;52.078;8.648;2023-03-02T01:49:43;16.92;;;8.15;;
19004;SDS011;9635;52.078;8.648;2023-03-02T01:54:51;18.88;;;8.43;;
19004;SDS011;9635;52.078;8.648;2023-03-02T01:59:58;15.63;;;7.90;;
19004;SDS011;9635;52.078;8.648;2023-03-02T02:05:12;16.10;;;8.05;;
19004;SDS011;9635;52.078;8.648;2023-03-02T02:10:20;15.63;;;8.38;;
19004;SDS011;9635;52.078;8.648;2023-03-02T02:15:25;16.00;;;7.90;;
19004;SDS011;9635;52.078;8.648;2023-03-02T02:20:29;18.00;;;7.53;;
19004;SDS011;9635;52.078;8.648;2023-03-02T02:25:40;13.80;;;7.18;;
19004;SDS011;9635;52.078;8.648;2023-03-02T02:30:51;14.35;;;7.57;;
19004;SDS011;9635;52.078;8.648;2023-03-02T02:36:02;11.77;;;7.03;;
19004;SDS011;9635;52.078;8.648;2023-03-02T02:41:11;16.23;;;7.47;;
19004;SDS011;9635;52.078;8.648;2023-03-02T02:46:21;14.02;;;7.50;;
19004;SDS011;9635;52.078;8.648;2023-03-02T02:51:26;12.90;;;7.53;;
19004;SDS011;9635;52.078;8.648;2023-03-02T02:56:31;11.82;;;6.85;;
19004;SDS011;9635;52.078;8.648;2023-03-02T03:01:37;14.43;;;7.68;;
19004;SDS011;9635;52.078;8.648;2023-03-02T03:06:48;13.57;;;7.22;;
19004;SDS011;9635;52.078;8.648;2023-03-02T03:11:53;12.15;;;7.45;;
19004;SDS011;9635;52.078;8.648;2023-03-02T03:16:59;13.40;;;7.65;;
19004;SDS011;9635;52.078;8.648;2023-03-02T03:22:03;15.57;;;8.48;;
19004;SDS011;9635;52.078;8.648;2023-03-02T03:27:09;15.40;;;8.35;;
19004;SDS011;9635;52.078;8.648;2023-03-02T03:32:16;14.73;;;8.65;;
19004;SDS011;9635;52.078;8.648;2023-03-02T03:37:21;12.73;;;7.32;;
19004;SDS011;9635;52.078;8.648;2023-03-02T03:42:25;14.70;;;7.65;;
19004;SDS011;9635;52.078;8.648;2023-03-02T03:47:31;14.80;;;7.20;;
19004;SDS011;9635;52.078;8.648;2023-03-02T03:52:35;15.02;;;7.65;;
19004;SDS011;9635;52.078;8.648;2023-03-02T03:57:45;13.13;;;7.63;;
19004;SDS011;9635;52.078;8.648;2023-03-02T04:02:50;15.77;;;7.72;;
19004;SDS011;9635;52.078;8.648;2023-03-02T04:07:53;17.30;;;8.52;;
19004;SDS011;9635;52.078;8.648;2023-03-02T04:12:56;14.98;;;7.70;;
19004;SDS011;9635;52.078;8.648;2023-03-02T04:18:02;16.00;;;8.68;;
19004;SDS011;9635;52.078;8.648;2023-03-02T04:23:06;13.52;;;7.25;;
19004;SDS011;9635;52.078;8.648;2023-03-02T04:28:09;16.80;;;7.30;;
19004;SDS011;9635;52.078;8.648;2023-03-02T04:33:15;21.13;;;8.00;;
19004;SDS011;9635;52.078;8.648;2023-03-02T04:38:18;13.68;;;7.63;;
19004;SDS011;9635;52.078;8.648;2023-03-02T04:43:21;14.63;;;7.38;;
19004;SDS011;9635;52.078;8.648;2023-03-02T04:48:25;12.05;;;6.93;;
19004;SDS011;9635;52.078;8.648;2023-03-02T04:53:28;17.55;;;8.25;;
19004;SDS011;9635;52.078;8.648;2023-03-02T04:58:31;14.32;;;7.35;;
19004;SDS011;9635;52.078;8.648;2023-03-02T05:03:35;13.68;;;6.80;;
19004;SDS011;9635;52.078;8.648;2023-03-02T05:08:38;11.65;;;6.90;;
19004;SDS011;9635;52.078;8.648;2023-03-02T05:13:41;14.73;;;7.10;;
19004;SDS011;9635;52.078;8.648;2023-03-02T05:18:45;16.23;;;7.05;;
19004;SDS011;9635;52.078;8.648;2023-03-02T05:23:49;14.40;;;7.80;;
19004;SDS011;9635;52.078;8.648;2023-03-02T05:28:52;13.77;;;7.28;;
19004;SDS011;9635;52.078;8.648;2023-03-02T05:33:56;15.70;;;8.00;;
19004;SDS011;9635;52.078;8.648;2023-03-02T05:39:00;14.35;;;8.18;;
19004;SDS011;9635;52.078;8.648;2023-03-02T05:44:04;13.40;;;7.72;;
19004;SDS011;9635;52.078;8.648;2023-03-02T05:49:11;16.10;;;8.43;;
19004;SDS011;9635;52.078;8.648;2023-03-02T05:54:13;16.08;;;8.95;;
19004;SDS011;9635;52.078;8.648;2023-03-02T05:59:16;17.40;;;9.00;;
19004;SDS011;9635;52.078;8.648;2023-03-02T06:04:20;18.42;;;9.73;;
19004;SDS011;9635;52.078;8.648;2023-03-02T06:09:23;21.35;;;10.38;;
19004;SDS011;9635;52.078;8.648;2023-03-02T06:14:26;18.88;;;9.65;;
19004;SDS011;9635;52.078;8.648;2023-03-02T06:19:30;19.95;;;10.15;;
19004;SDS011;9635;52.078;8.648;2023-03-02T06:24:33;23.33;;;10.40;;
19004;SDS011;9635;52.078;8.648;2023-03-02T06:29:36;26.15;;;11.50;;
19004;SDS011;9635;52.078;8.648;2023-03-02T06:34:40;30.90;;;13.45;;
19004;SDS011;9635;52.078;8.648;2023-03-02T06:39:43;28.95;;;13.25;;
19004;SDS011;9635;52.078;8.648;2023-03-02T06:44:46;26.75;;;12.43;;
19004;SDS011;9635;52.078;8.648;2023-03-02T06:49:51;26.77;;;13.75;;
19004;SDS011;9635;52.078;8.648;2023-03-02T06:54:54;25.75;;;12.18;;
19004;SDS011;9635;52.078;8.648;2023-03-02T06:59:57;25.30;;;13.60;;
19004;SDS011;9635;52.078;8.648;2023-03-02T07:05:02;31.08;;;14.50;;
19004;SDS011;9635;52.078;8.648;2023-03-02T07:10:05;34.42;;;16.27;;
19004;SDS011;9635;52.078;8.648;2023-03-02T07:15:09;53.83;;;21.50;;
19004;SDS011;9635;52.078;8.648;2023-03-02T07:20:16;33.63;;;18.42;;
19004;SDS011;9635;52.078;8.648;2023-03-02T07:25:19;26.77;;;14.40;;
19004;SDS011;9635;52.078;8.648;2023-03-02T07:30:22;24.90;;;14.02;;
19004;SDS011;9635;52.078;8.648;2023-03-02T07:35:27;30.00;;;16.55;;
19004;SDS011;9635;52.078;8.648;2023-03-02T07:40:30;30.33;;;14.93;;
19004;SDS011;9635;52.078;8.648;2023-03-02T07:45:32;34.15;;;18.88;;
19004;SDS011;9635;52.078;8.648;2023-03-02T07:50:37;29.88;;;16.92;;
19004;SDS011;9635;52.078;8.648;2023-03-02T07:55:40;33.60;;;15.82;;
19004;SDS011;9635;52.078;8.648;2023-03-02T08:00:43;31.35;;;16.08;;
19004;SDS011;9635;52.078;8.648;2023-03-02T08:05:47;33.08;;;17.77;;
19004;SDS011;9635;52.078;8.648;2023-03-02T08:10:50;40.72;;;18.70;;
19004;SDS011;9635;52.078;8.648;2023-03-02T08:15:57;41.75;;;18.67;;
19004;SDS011;9635;52.078;8.648;2023-03-02T08:21:02;34.83;;;18.52;;
19004;SDS011;9635;52.078;8.648;2023-03-02T08:26:05;36.67;;;19.73;;
19004;SDS011;9635;52.078;8.648;2023-03-02T08:31:08;33.30;;;17.75;;
19004;SDS011;9635;52.078;8.648;2023-03-02T08:36:14;34.20;;;17.05;;
19004;SDS011;9635;52.078;8.648;2023-03-02T08:41:19;36.88;;;19.52;;
19004;SDS011;9635;52.078;8.648;2023-03-02T08:46:22;32.70;;;17.45;;
19004;SDS011;9635;52.078;8.648;2023-03-02T08:51:27;38.17;;;18.88;;
19004;SDS011;9635;52.078;8.648;2023-03-02T08:56:31;33.55;;;17.95;;
19004;SDS011;9635;52.078;8.648;2023-03-02T09:01:36;34.42;;;18.25;;
19004;SDS011;9635;52.078;8.648;2023-03-02T09:06:41;35.42;;;19.38;;
19004;SDS011;9635;52.078;8.648;2023-03-02T09:11:45;35.00;;;18.30;;
19004;SDS011;9635;52.078;8.648;2023-03-02T09:16:48;35.83;;;19.17;;
19004;SDS011;9635;52.078;8.648;2023-03-02T09:21:54;30.42;;;17.38;;
19004;SDS011;9635;52.078;8.648;2023-03-02T09:26:57;35.22;;;18.63;;
19004;SDS011;9635;52.078;8.648;2023-03-02T09:32:00;31.60;;;17.35;;
19004;SDS011;9635;52.078;8.648;2023-03-02T09:37:04;29.73;;;17.65;;
19004;SDS011;9635;52.078;8.648;2023-03-02T09:42:15;32.35;;;17.80;;
19004;SDS011;9635;52.078;8.648;2023-03-02T09:47:45;30.13;;;16.85;;
19004;SDS011;9635;52.078;8.648;2023-03-02T09:53:10;27.63;;;15.18;;
19004;SDS011;9635;52.078;8.648;2023-03-02T09:58:30;26.85;;;15.80;;
19004;SDS011;9635;52.078;8.648;2023-03-02T10:03:38;27.40;;;15.50;;
19004;SDS011;9635;52.078;8.648;2023-03-02T10:08:50;28.70;;;16.80;;
19004;SDS011;9635;52.078;8.648;2023-03-02T10:13:54;31.42;;;15.80;;
19004;SDS011;9635;52.078;8.648;2023-03-02T10:19:03;30.48;;;16.30;;
19004;SDS011;9635;52.078;8.648;2023-03-02T10:24:14;27.50;;;15.05;;
19004;SDS011;9635;52.078;8.648;2023-03-02T10:29:37;26.48;;;15.32;;
19004;SDS011;9635;52.078;8.648;2023-03-02T10:34:47;27.73;;;15.15;;
19004;SDS011;9635;52.078;8.648;2023-03-02T10:39:52;27.58;;;14.98;;
19004;SDS011;9635;52.078;8.648;2023-03-02T10:44:55;24.45;;;14.40;;
19004;SDS011;9635;52.078;8.648;2023-03-02T10:50:19;22.10;;;15.02;;
19004;SDS011;9635;52.078;8.648;2023-03-02T10:55:24;24.13;;;15.07;;
19004;SDS011;9635;52.078;8.648;2023-03-02T11:00:28;26.05;;;14.68;;
19004;SDS011;9635;52.078;8.648;2023-03-02T11:05:32;25.60;;;14.77;;
19004;SDS011;9635;52.078;8.648;2023-03-02T11:10:38;26.25;;;15.60;;
19004;SDS011;9635;52.078;8.648;2023-03-02T11:15:43;23.60;;;14.48;;
19004;SDS011;9635;52.078;8.648;2023-03-02T11:20:49;23.65;;;15.20;;
19004;SDS011;9635;52.078;8.648;2023-03-02T11:25:56;26.15;;;16.10;;
19004;SDS011;9635;52.078;8.648;2023-03-02T11:31:03;24.02;;;14.98;;
19004;SDS011;9635;52.078;8.648;2023-03-02T11:36:13;24.48;;;15.05;;
19004;SDS011;9635;52.078;8.648;2023-03-02T11:41:23;21.80;;;14.90;;
19004;SDS011;9635;52.078;8.648;2023-03-02T11:46:30;23.48;;;15.18;;
19004;SDS011;9635;52.078;8.648;2023-03-02T11:51:34;23.98;;;15.88;;
19004;SDS011;9635;52.078;8.648;2023-03-02T11:56:51;21.02;;;14.23;;
19004;SDS011;9635;52.078;8.648;2023-03-02T12:01:54;22.15;;;14.50;;
19004;SDS011;9635;52.078;8.648;2023-03-02T12:07:01;23.45;;;15.57;;
19004;SDS011;9635;52.078;8.648;2023-03-02T12:12:31;24.73;;;15.80;;
19004;SDS011;9635;52.078;8.648;2023-03-02T12:17:36;25.05;;;15.98;;
19004;SDS011;9635;52.078;8.648;2023-03-02T12:22:40;29.15;;;15.70;;
19004;SDS011;9635;52.078;8.648;2023-03-02T12:27:44;26.23;;;16.40;;
19004;SDS011;9635;52.078;8.648;2023-03-02T12:32:57;25.08;;;15.90;;
19004;SDS011;9635;52.078;8.648;2023-03-02T12:38:05;28.15;;;17.35;;
19004;SDS011;9635;52.078;8.648;2023-03-02T12:43:27;25.80;;;16.00;;
19004;SDS011;9635;52.078;8.648;2023-03-02T12:48:35;27.38;;;16.73;;
19004;SDS011;9635;52.078;8.648;2023-03-02T12:53:44;24.52;;;15.73;;
19004;SDS011;9635;52.078;8.648;2023-03-02T12:58:49;29.08;;;16.27;;
19004;SDS011;9635;52.078;8.648;2023-03-02T13:03:52;28.45;;;16.20;;
19004;SDS011;9635;52.078;8.648;2023-03-02T13:08:56;23.27;;;14.98;;
19004;SDS011;9635;52.078;8.648;2023-03-02T13:14:01;26.98;;;15.23;;
19004;SDS011;9635;52.078;8.648;2023-03-02T13:19:20;22.65;;;15.63;;
19004;SDS011;9635;52.078;8.648;2023-03-02T13:24:28;21.60;;;14.98;;
19004;SDS011;9635;52.078;8.648;2023-03-02T13:29:36;20.52;;;14.60;;
19004;SDS011;9635;52.078;8.648;2023-03-02T13:34:43;19.55;;;15.13;;
19004;SDS011;9635;52.078;8.648;2023-03-02T13:39:56;26.13;;;16.85;;
19004;SDS011;9635;52.078;8.648;2023-03-02T13:45:09;24.25;;;16.67;;
19004;SDS011;9635;52.078;8.648;2023-03-02T13:50:23;23.55;;;16.63;;
19004;SDS011;9635;52.078;8.648;2023-03-02T13:55:27;24.50;;;16.95;;
19004;SDS011;9635;52.078;8.648;2023-03-02T14:00:32;23.98;;;17.10;;
19004;SDS011;9635;52.078;8.648;2023-03-02T14:05:36;24.73;;;17.50;;
19004;SDS011;9635;52.078;8.648;2023-03-02T14:10:39;25.73;;;18.65;;
19004;SDS011;9635;52.078;8.648;2023-03-02T14:15:46;24.45;;;17.63;;
19004;SDS011;9635;52.078;8.648;2023-03-02T14:20:51;27.65;;;18.13;;
19004;SDS011;9635;52.078;8.648;2023-03-02T14:25:54;25.23;;;16.15;;
19004;SDS011;9635;52.078;8.648;2023-03-02T14:30:59;24.48;;;16.30;;
19004;SDS011;9635;52.078;8.648;2023-03-02T14:36:02;26.33;;;17.48;;
19004;SDS011;9635;52.078;8.648;2023-03-02T14:41:07;26.05;;;17.92;;
19004;SDS011;9635;52.078;8.648;2023-03-02T14:46:15;25.48;;;17.33;;
19004;SDS011;9635;52.078;8.648;2023-03-02T14:51:20;26.33;;;17.52;;
19004;SDS011;9635;52.078;8.648;2023-03-02T14:56:25;27.55;;;18.63;;
19004;SDS011;9635;52.078;8.648;2023-03-02T15:01:30;29.52;;;18.40;;
19004;SDS011;9635;52.078;8.648;2023-03-02T15:06:35;27.92;;;19.23;;
19004;SDS011;9635;52.078;8.648;2023-03-02T15:11:40;31.17;;;19.92;;
19004;SDS011;9635;52.078;8.648;2023-03-02T15:16:44;33.95;;;20.70;;
19004;SDS011;9635;52.078;8.648;2023-03-02T15:21:47;29.30;;;19.33;;
19004;SDS011;9635;52.078;8.648;2023-03-02T15:26:49;30.52;;;20.15;;
19004;SDS011;9635;52.078;8.648;2023-03-02T15:31:54;30.73;;;20.38;;
19004;SDS011;9635;52.078;8.648;2023-03-02T15:36:57;32.97;;;20.30;;
19004;SDS011;9635;52.078;8.648;2023-03-02T15:42:00;36.78;;;21.27;;
19004;SDS011;9635;52.078;8.648;2023-03-02T15:47:04;35.88;;;21.70;;
19004;SDS011;9635;52.078;8.648;2023-03-02T15:52:07;41.80;;;23.27;;
19004;SDS011;9635;52.078;8.648;2023-03-02T15:57:09;39.53;;;23.70;;
19004;SDS011;9635;52.078;8.648;2023-03-02T16:02:14;39.83;;;23.08;;
19004;SDS011;9635;52.078;8.648;2023-03-02T16:07:17;38.72;;;21.77;;
19004;SDS011;9635;52.078;8.648;2023-03-02T16:12:19;34.45;;;21.35;;
19004;SDS011;9635;52.078;8.648;2023-03-02T16:17:25;37.70;;;21.95;;
19004;SDS011;9635;52.078;8.648;2023-03-02T16:22:28;39.25;;;21.98;;
19004;SDS011;9635;52.078;8.648;2023-03-02T16:27:31;41.42;;;21.92;;
19004;SDS011;9635;52.078;8.648;2023-03-02T16:32:35;40.15;;;22.70;;
19004;SDS011;9635;52.078;8.648;2023-03-02T16:37:38;38.72;;;21.25;;
19004;SDS011;9635;52.078;8.648;2023-03-02T16:42:40;43.00;;;23.50;;
19004;SDS011;9635;52.078;8.648;2023-03-02T16:47:45;46.28;;;23.83;;
19004;SDS011;9635;52.078;8.648;2023-03-02T16:52:48;44.90;;;24.30;;
19004;SDS011;9635;52.078;8.648;2023-03-02T16:57:50;44.28;;;23.77;;
19004;SDS011;9635;52.078;8.648;2023-03-02T17:02:55;46.83;;;23.38;;
19004;SDS011;9635;52.078;8.648;2023-03-02T17:07:57;57.88;;;30.73;;
19004;SDS011;9635;52.078;8.648;2023-03-02T17:13:02;47.92;;;24.85;;
19004;SDS011;9635;52.078;8.648;2023-03-02T17:18:07;47.47;;;25.77;;
19004;SDS011;9635;52.078;8.648;2023-03-02T17:23:10;45.78;;;24.27;;
19004;SDS011;9635;52.078;8.648;2023-03-02T17:28:14;48.45;;;25.27;;
19004;SDS011;9635;52.078;8.648;2023-03-02T17:33:19;49.25;;;25.30;;
19004;SDS011;9635;52.078;8.648;2023-03-02T17:38:21;46.05;;;23.65;;
19004;SDS011;9635;52.078;8.648;2023-03-02T17:43:24;43.08;;;22.23;;
19004;SDS011;9635;52.078;8.648;2023-03-02T17:48:28;45.97;;;23.88;;
19004;SDS011;9635;52.078;8.648;2023-03-02T17:53:31;44.72;;;23.50;;
19004;SDS011;9635;52.078;8.648;2023-03-02T17:58:34;42.28;;;23.40;;
19004;SDS011;9635;52.078;8.648;2023-03-02T18:03:46;39.75;;;22.65;;
19004;SDS011;9635;52.078;8.648;2023-03-02T18:08:50;42.95;;;22.88;;
19004;SDS011;9635;52.078;8.648;2023-03-02T18:13:53;46.30;;;24.10;;
19004;SDS011;9635;52.078;8.648;2023-03-02T18:18:58;51.22;;;24.20;;
19004;SDS011;9635;52.078;8.648;2023-03-02T18:24:01;50.10;;;25.27;;
19004;SDS011;9635;52.078;8.648;2023-03-02T18:29:06;43.78;;;22.42;;
19004;SDS011;9635;52.078;8.648;2023-03-02T18:34:10;43.97;;;23.30;;
19004;SDS011;9635;52.078;8.648;2023-03-02T18:39:13;38.40;;;20.60;;
19004;SDS011;9635;52.078;8.648;2023-03-02T18:44:16;41.00;;;21.20;;
19004;SDS011;9635;52.078;8.648;2023-03-02T18:49:21;37.55;;;18.80;;
19004;SDS011;9635;52.078;8.648;2023-03-02T18:54:24;43.53;;;20.20;;
19004;SDS011;9635;52.078;8.648;2023-03-02T18:59:27;40.97;;;20.85;;
19004;SDS011;9635;52.078;8.648;2023-03-02T19:04:31;38.53;;;18.95;;
19004;SDS011;9635;52.078;8.648;2023-03-02T19:09:34;40.50;;;20.25;;
19004;SDS011;9635;52.078;8.648;2023-03-02T19:14:37;44.70;;;21.45;;
19004;SDS011;9635;52.078;8.648;2023-03-02T19:19:44;45.95;;;22.25;;
19004;SDS011;9635;52.078;8.648;2023-03-02T19:24:47;43.72;;;21.08;;
19004;SDS011;9635;52.078;8.648;2023-03-02T19:29:49;44.63;;;21.95;;
19004;SDS011;9635;52.078;8.648;2023-03-02T19:34:54;44.13;;;20.65;;
19004;SDS011;9635;52.078;8.648;2023-03-02T19:39:56;49.50;;;20.98;;
19004;SDS011;9635;52.078;8.648;2023-03-02T19:44:59;39.60;;;19.95;;
19004;SDS011;9635;52.078;8.648;2023-03-02T19:50:05;45.92;;;21.00;;
19004;SDS011;9635;52.078;8.648;2023-03-02T19:55:09;46.03;;;21.02;;
19004;SDS011;9635;52.078;8.648;2023-03-02T20:00:14;45.65;;;20.92;;
19004;SDS011;9635;52.078;8.648;2023-03-02T20:05:19;49.20;;;21.95;;
19004;SDS011;9635;52.078;8.648;2023-03-02T20:10:25;57.83;;;23.55;;
19004;SDS011;9635;52.078;8.648;2023-03-02T20:15:31;57.28;;;24.30;;
19004;SDS011;9635;52.078;8.648;2023-03-02T20:20:39;51.97;;;24.00;;
19004;SDS011;9635;52.078;8.648;2023-03-02T20:25:43;46.65;;;21.70;;
19004;SDS011;9635;52.078;8.648;2023-03-02T20:30:49;55.38;;;24.02;;
19004;SDS011;9635;52.078;8.648;2023-03-02T20:35:55;54.92;;;24.48;;
19004;SDS011;9635;52.078;8.648;2023-03-02T20:40:59;51.97;;;25.20;;
19004;SDS011;9635;52.078;8.648;2023-03-02T20:46:03;56.35;;;23.88;;
19004;SDS011;9635;52.078;8.648;2023-03-02T20:51:08;56.28;;;24.92;;
19004;SDS011;9635;52.078;8.648;2023-03-02T20:56:11;59.15;;;26.30;;
19004;SDS011;9635;52.078;8.648;2023-03-02T21:01:16;59.75;;;26.80;;
19004;SDS011;9635;52.078;8.648;2023-03-02T21:06:21;55.97;;;25.33;;
19004;SDS011;9635;52.078;8.648;2023-03-02T21:11:24;50.03;;;22.50;;
19004;SDS011;9635;52.078;8.648;2023-03-02T21:16:29;53.45;;;24.45;;
19004;SDS011;9635;52.078;8.648;2023-03-02T21:21:38;54.70;;;24.48;;
19004;SDS011;9635;52.078;8.648;2023-03-02T21:26:42;50.88;;;21.95;;
19004;SDS011;9635;52.078;8.648;2023-03-02T21:31:46;44.10;;;20.67;;
19004;SDS011;9635;52.078;8.648;2023-03-02T21:36:50;42.90;;;20.50;;
19004;SDS011;9635;52.078;8.648;2023-03-02T21:41:54;45.53;;;20.88;;
19004;SDS011;9635;52.078;8.648;2023-03-02T21:46:57;51.28;;;21.50;;
19004;SDS011;9635;52.078;8.648;2023-03-02T21:52:01;45.85;;;20.90;;
19004;SDS011;9635;52.078;8.648;2023-03-02T21:57:04;43.35;;;21.42;;
19004;SDS011;9635;52.078;8.648;2023-03-02T22:02:08;47.28;;;21.17;;
19004;SDS011;9635;52.078;8.648;2023-03-02T22:07:13;43.20;;;19.50;;
19004;SDS011;9635;52.078;8.648;2023-03-02T22:12:16;40.42;;;19.27;;
19004;SDS011;9635;52.078;8.648;2023-03-02T22:17:20;37.85;;;18.30;;
19004;SDS011;9635;52.078;8.648;2023-03-02T22:22:26;39.60;;;18.83;;
19004;SDS011;9635;52.078;8.648;2023-03-02T22:27:31;39.67;;;19.42;;
19004;SDS011;9635;52.078;8.648;2023-03-02T22:32:38;42.25;;;18.42;;
19004;SDS011;9635;52.078;8.648;2023-03-02T22:44:36;33.03;;;16.30;;
19004;SDS011;9635;52.078;8.648;2023-03-02T22:49:39;34.92;;;17.05;;
19004;SDS011;9635;52.078;8.648;2023-03-02T22:54:42;37.05;;;18.25;;
19004;SDS011;9635;52.078;8.648;2023-03-02T22:59:47;33.92;;;17.33;;
19004;SDS011;9635;52.078;8.648;2023-03-02T23:04:50;33.00;;;16.45;;
19004;SDS011;9635;52.078;8.648;2023-03-02T23:09:53;29.75;;;15.50;;
19004;SDS011;9635;52.078;8.648;2023-03-02T23:14:57;29.85;;;16.02;;
19004;SDS011;9635;52.078;8.648;2023-03-02T23:20:00;31.77;;;16.02;;
19004;SDS011;9635;52.078;8.648;2023-03-02T23:25:04;30.50;;;15.75;;
19004;SDS011;9635;52.078;8.648;2023-03-02T23:30:09;31.20;;;15.93;;
19004;SDS011;9635;52.078;8.648;2023-03-02T23:35:12;32.92;;;17.10;;
19004;SDS011;9635;52.078;8.648;2023-03-02T23:40:15;29.52;;;15.82;;
19004;SDS011;9635;52.078;8.648;2023-03-02T23:45:23;30.77;;;16.05;;
19004;SDS011;9635;52.078;8.648;2023-03-02T23:50:26;29.30;;;15.85;;
19004;SDS011;9635;52.078;8.648;2023-03-02T23:55:29;27.23;;;14.32;;
